Flight Track Log - Related Links

Times and Time Zones

All times are in EST time to prevent confusion due to time zone crossing. See the N57658 flight status page for this flight to view local times or setup timezone preferences in your user account.

Time Position Orientation Groundspeed Altitude Reporting Facility
EST Latitude Longitude Course Direction KTS MPH feet Rate Location/Type
Wed 05:46:13 PM 35.1964 -77.8211 230° Southwest 121 139 4,900  Level Washington Center
Wed 05:47:13 PM 35.1728 -77.8561 230° Southwest 125 144 5,400 496 Climbing Washington Center
Wed 05:48:14 PM 35.1514 -77.8858 229° Southwest 125 144 5,900 492 Climbing Washington Center
Wed 05:50:00 PM 35.1127 -77.9589 237° Southwest  Level FlightAware Approximate
Wed 05:57:00 PM 34.9593 -78.2482 239° Southwest  Level FlightAware Approximate
Wed 05:58:00 PM 34.9383 -78.2902 239° Southwest  Level FlightAware Approximate
Wed 05:59:00 PM 34.9173 -78.3321 239° Southwest  Level FlightAware Approximate
Wed 06:00:00 PM 34.8960 -78.3737 235° Southwest  Level FlightAware Approximate
Wed 06:01:00 PM 34.8729 -78.4140 235° Southwest  Level FlightAware Approximate
Wed 06:02:00 PM 34.8498 -78.4542 235° Southwest  Level FlightAware Approximate
Wed 06:03:00 PM 34.8267 -78.4944 235° Southwest  Level FlightAware Approximate
Wed 06:04:00 PM 34.8035 -78.5346 235° Southwest  Level FlightAware Approximate
Wed 06:05:00 PM 34.7804 -78.5747 235° Southwest  Level FlightAware Approximate
Wed 06:06:00 PM 34.7573 -78.6148 235° Southwest  Level FlightAware Approximate
Wed 06:07:00 PM 34.7341 -78.6549 235° Southwest  Level FlightAware Approximate
Wed 06:08:00 PM 34.7109 -78.6950 235° Southwest  Level FlightAware Approximate
Wed 06:09:00 PM 34.6877 -78.7351 235° Southwest  Level FlightAware Approximate
Wed 06:10:00 PM 34.6645 -78.7751 235° Southwest  Level FlightAware Approximate
Wed 06:11:00 PM 34.6413 -78.8151 235° Southwest  Level FlightAware Approximate
Wed 06:12:00 PM 34.6181 -78.8551 235° Southwest  Level FlightAware Approximate
Wed 06:13:00 PM 34.5948 -78.8951 235° Southwest  Level FlightAware Approximate
Wed 06:14:00 PM 34.5716 -78.9350 235° Southwest  Level FlightAware Approximate
Wed 06:15:00 PM 34.5483 -78.9750 235° Southwest  Level FlightAware Approximate
Wed 06:16:00 PM 34.5250 -79.0149 235° Southwest  Level FlightAware Approximate
Wed 06:17:00 PM 34.5017 -79.0547 235° Southwest  Level FlightAware Approximate
Wed 06:18:00 PM 34.4784 -79.0946 235° Southwest  Level FlightAware Approximate
Wed 06:19:00 PM 34.4551 -79.1345 235° Southwest  Level FlightAware Approximate
Wed 06:20:00 PM 34.4318 -79.1743 235° Southwest  Level FlightAware Approximate
Wed 06:21:00 PM 34.4086 -79.2142 236° Southwest  Level FlightAware Approximate
Wed 06:22:00 PM 34.3859 -79.2545 236° Southwest  Level FlightAware Approximate
Wed 06:23:00 PM 34.3631 -79.2947 236° Southwest  Level FlightAware Approximate
Wed 06:24:00 PM 34.3403 -79.3350 236° Southwest  Level FlightAware Approximate
Wed 06:25:00 PM 34.3175 -79.3752 236° Southwest  Level FlightAware Approximate
Wed 06:26:00 PM 34.2946 -79.4154 235° Southwest  Level FlightAware Approximate
Wed 06:27:00 PM 34.2718 -79.4555 235° Southwest  Level FlightAware Approximate
Wed 06:28:00 PM 34.2490 -79.4957 235° Southwest  Level FlightAware Approximate
Wed 06:29:00 PM 34.2261 -79.5358 235° Southwest  Level FlightAware Approximate
Wed 06:30:00 PM 34.2032 -79.5759 235° Southwest  Level FlightAware Approximate
Wed 06:31:00 PM 34.1803 -79.6159 235° Southwest  Level FlightAware Approximate
Wed 06:32:00 PM 34.1574 -79.6560 235° Southwest  Level FlightAware Approximate
Wed 06:33:00 PM 34.1345 -79.6960 235° Southwest  Level FlightAware Approximate
Wed 06:34:00 PM 34.1116 -79.7360 235° Southwest  Level FlightAware Approximate
Wed 06:35:00 PM 34.0886 -79.7760 235° Southwest  Level FlightAware Approximate
Wed 06:36:00 PM 34.0657 -79.8159 235° Southwest  Level FlightAware Approximate
Wed 06:37:00 PM 34.0427 -79.8559 235° Southwest  Level FlightAware Approximate
Wed 06:38:00 PM 34.0197 -79.8958 235° Southwest  Level FlightAware Approximate
Wed 06:39:00 PM 33.9967 -79.9357 235° Southwest  Level FlightAware Approximate
Wed 06:40:00 PM 33.9737 -79.9756 235° Southwest  Level FlightAware Approximate
Wed 06:41:00 PM 33.9507 -80.0154 235° Southwest  Level FlightAware Approximate
Wed 06:42:00 PM 33.9269 -80.0546 234° Southwest  Level FlightAware Approximate
Wed 06:43:00 PM 33.9031 -80.0937 234° Southwest  Level FlightAware Approximate
Wed 06:44:00 PM 33.8792 -80.1328 234° Southwest  Level FlightAware Approximate
Wed 06:45:00 PM 33.8553 -80.1719 234° Southwest  Level FlightAware Approximate
Wed 06:46:00 PM 33.8315 -80.2110 234° Southwest  Level FlightAware Approximate
Wed 06:47:00 PM 33.8076 -80.2500 234° Southwest  Level FlightAware Approximate
Wed 06:48:00 PM 33.7836 -80.2890 234° Southwest  Level FlightAware Approximate
Wed 06:49:00 PM 33.7597 -80.3280 234° Southwest  Level FlightAware Approximate
Wed 06:50:00 PM 33.7358 -80.3670 234° Southwest  Level FlightAware Approximate
Wed 06:51:00 PM 33.7119 -80.4059 234° Southwest  Level FlightAware Approximate
Wed 06:52:00 PM 33.6879 -80.4448 234° Southwest  Level FlightAware Approximate
Wed 06:53:00 PM 33.6639 -80.4837 233° Southwest  Level FlightAware Approximate
Wed 06:54:00 PM 33.6399 -80.5226 233° Southwest  Level FlightAware Approximate
Wed 06:55:00 PM 33.6183 -80.5634 239° Southwest  Level FlightAware Approximate
Wed 06:56:00 PM 33.5976 -80.6048 239° Southwest  Level FlightAware Approximate
Wed 06:57:00 PM 33.5769 -80.6463 239° Southwest  Level FlightAware Approximate
Wed 06:58:00 PM 33.5530 -80.6849 228° Southwest  Level FlightAware Approximate
Wed 06:59:00 PM 33.5260 -80.7209 228° Southwest  Level FlightAware Approximate
Wed 07:00:00 PM 33.5069 -80.7626 248° West  Level FlightAware Approximate
Wed 07:01:00 PM 33.4855 -80.8027 228° Southwest  Level FlightAware Approximate
Wed 07:02:00 PM 33.4586 -80.8386 228° Southwest  Level FlightAware Approximate
Wed 07:03:00 PM 33.4500 -80.8500 228° Southwest  Level FlightAware Approximate
Wed 07:04:00 PM 33.4569 -80.8594 228° Southwest  Level Estimated
Wed 07:05:00 PM 33.4569 -80.8594 228° Southwest  Level Estimated
Wed 07:06:00 PM 33.4569 -80.8594 228° Southwest  Level Estimated
Wed 07:07:00 PM 33.4569 -80.8594 228° Southwest  Level Estimated
Wed 07:08:00 PM 33.4569 -80.8594 228° Southwest  Level Estimated
Wed 07:09:00 PM 33.4569 -80.8594 228° Southwest  Level Estimated
Wed 07:10:00 PM 33.4569 -80.8594 228° Southwest  Level Estimated
Wed 07:11:00 PM 33.4569 -80.8594 228° Southwest  Level Estimated

Login

Don't have an account? Register now (free) for customized features, flight alerts, and more!